createdAt,value
2022-10-17T00:02:14.245Z,18.50
2022-10-17T00:04:43.097Z,18.33
2022-10-17T00:07:11.937Z,18.51
2022-10-17T00:09:40.670Z,18.58
2022-10-17T00:12:09.392Z,18.60
2022-10-17T00:14:38.184Z,18.71
2022-10-17T00:17:06.849Z,18.81
2022-10-17T00:19:35.546Z,18.91
2022-10-17T00:22:04.383Z,18.57
2022-10-17T00:24:33.111Z,17.33
2022-10-17T00:27:02.015Z,16.20
2022-10-17T00:29:30.938Z,15.35
2022-10-17T00:31:59.592Z,14.82
2022-10-17T00:34:28.478Z,15.46
2022-10-17T00:36:57.164Z,16.30
2022-10-17T00:39:26.818Z,16.90
2022-10-17T00:41:56.157Z,17.41
2022-10-17T00:44:25.067Z,17.59
2022-10-17T00:46:53.782Z,17.79
2022-10-17T00:49:22.743Z,18.05
2022-10-17T00:51:51.763Z,18.21
2022-10-17T00:54:20.754Z,18.30
2022-10-17T00:56:49.722Z,18.48
2022-10-17T00:59:18.361Z,18.60
2022-10-17T01:01:47.197Z,18.63
2022-10-17T01:04:16.043Z,18.64
2022-10-17T01:06:45.500Z,18.73
2022-10-17T01:09:14.290Z,18.78
2022-10-17T01:11:43.157Z,18.78
2022-10-17T01:14:11.952Z,18.73
2022-10-17T01:16:41.633Z,17.63
2022-10-17T01:19:10.472Z,16.35
2022-10-17T01:21:39.328Z,15.65
2022-10-17T01:24:08.107Z,16.27
2022-10-17T01:26:36.935Z,17.06
2022-10-17T01:29:05.803Z,17.58
2022-10-17T01:31:34.464Z,17.88
2022-10-17T01:34:04.184Z,17.94
2022-10-17T01:36:33.082Z,18.02
2022-10-17T01:39:01.857Z,18.09
2022-10-17T01:41:31.827Z,18.17
2022-10-17T01:44:00.778Z,18.18
2022-10-17T01:46:29.667Z,18.21
2022-10-17T01:48:58.556Z,18.35
2022-10-17T01:51:27.923Z,18.51
2022-10-17T01:53:56.738Z,18.57
2022-10-17T01:56:25.393Z,17.76
2022-10-17T01:58:54.318Z,16.54
2022-10-17T02:01:23.048Z,15.50
2022-10-17T02:03:52.430Z,14.75
2022-10-17T02:06:21.302Z,14.13
2022-10-17T02:08:49.963Z,13.86
2022-10-17T02:11:18.770Z,14.65
2022-10-17T02:13:47.766Z,15.36
2022-10-17T02:16:16.463Z,15.82
2022-10-17T02:18:49.432Z,16.30
2022-10-17T02:21:22.346Z,16.64
2022-10-17T02:23:55.833Z,16.93
2022-10-17T02:26:29.251Z,17.21
2022-10-17T02:29:07.873Z,17.49
2022-10-17T02:31:41.227Z,17.69
2022-10-17T02:34:10.123Z,17.85
2022-10-17T02:36:39.257Z,17.89
2022-10-17T02:39:08.266Z,17.74
2022-10-17T02:41:37.218Z,17.66
2022-10-17T02:44:06.083Z,17.82
2022-10-17T02:46:34.765Z,16.89
2022-10-17T02:49:08.010Z,15.95
2022-10-17T02:51:45.303Z,16.14
2022-10-17T02:54:18.619Z,16.38
2022-10-17T02:56:47.429Z,16.35
2022-10-17T02:59:21.362Z,16.53
2022-10-17T03:01:58.666Z,16.74
2022-10-17T03:04:32.124Z,16.92
2022-10-17T03:07:01.126Z,17.14
2022-10-17T03:09:30.548Z,17.33
2022-10-17T03:11:59.361Z,17.33
2022-10-17T03:14:28.412Z,17.38
2022-10-17T03:16:57.183Z,17.45
2022-10-17T03:19:26.449Z,17.49
2022-10-17T03:21:55.508Z,17.33
2022-10-17T03:24:24.242Z,17.08
2022-10-17T03:26:57.084Z,17.06
2022-10-17T03:29:26.123Z,17.15
2022-10-17T03:31:55.176Z,17.28
2022-10-17T03:34:23.831Z,17.40
2022-10-17T03:36:57.069Z,17.48
2022-10-17T03:39:26.146Z,17.32
2022-10-17T03:41:55.501Z,17.20
2022-10-17T03:44:24.820Z,17.29
2022-10-17T03:46:53.633Z,17.43
2022-10-17T03:49:22.277Z,17.48
2022-10-17T03:51:51.170Z,16.54
2022-10-17T03:54:20.056Z,15.55
2022-10-17T03:56:49.442Z,15.73
2022-10-17T03:59:19.399Z,16.28
2022-10-17T04:01:53.795Z,16.70
2022-10-17T04:04:23.088Z,16.97
2022-10-17T04:06:52.238Z,17.16
2022-10-17T04:09:30.341Z,17.14
2022-10-17T04:12:03.304Z,17.42
2022-10-17T04:14:32.264Z,16.33
2022-10-17T04:17:00.972Z,15.16
2022-10-17T04:19:30.274Z,15.50
2022-10-17T04:21:59.039Z,15.88
2022-10-17T04:24:28.087Z,16.09
2022-10-17T04:27:06.652Z,16.35
2022-10-17T04:29:37.895Z,16.65
2022-10-17T04:32:11.297Z,16.59
2022-10-17T04:34:46.025Z,16.39
2022-10-17T04:37:19.924Z,16.38
2022-10-17T04:39:49.341Z,16.41
2022-10-17T04:42:18.276Z,16.59
2022-10-17T04:44:47.728Z,16.73
2022-10-17T04:47:17.944Z,16.85
2022-10-17T04:49:46.846Z,16.91
2022-10-17T04:52:16.701Z,17.04
2022-10-17T04:54:47.169Z,17.17
2022-10-17T04:57:16.243Z,16.78
2022-10-17T04:59:51.716Z,15.58
2022-10-17T05:02:27.529Z,14.78
2022-10-17T05:04:57.680Z,15.31
2022-10-17T05:07:26.469Z,15.88
2022-10-17T05:10:10.683Z,16.26
2022-10-17T05:12:43.976Z,16.38
2022-10-17T05:15:17.006Z,16.45
2022-10-17T05:17:51.007Z,16.57
2022-10-17T05:20:24.815Z,16.74
2022-10-17T05:22:54.328Z,16.89
2022-10-17T05:25:22.996Z,17.07
2022-10-17T05:27:51.660Z,17.20
2022-10-17T05:30:33.734Z,17.34
2022-10-17T05:33:10.882Z,17.34
2022-10-17T05:35:43.887Z,16.49
2022-10-17T05:38:24.876Z,15.38
2022-10-17T05:40:58.017Z,14.55
2022-10-17T05:43:31.698Z,14.13
2022-10-17T05:46:05.789Z,15.03
2022-10-17T05:48:34.951Z,15.92
2022-10-17T05:51:04.194Z,16.20
2022-10-17T05:53:33.145Z,16.37
2022-10-17T05:56:04.274Z,16.68
2022-10-17T05:58:50.847Z,16.97
2022-10-17T06:01:44.643Z,17.08
2022-10-17T06:04:13.577Z,17.17
2022-10-17T06:06:42.554Z,17.27
2022-10-17T06:09:11.952Z,17.45
2022-10-17T06:11:44.495Z,16.75
2022-10-17T06:14:13.639Z,15.65
2022-10-17T06:16:43.812Z,14.88
2022-10-17T06:19:12.744Z,15.26
2022-10-17T06:21:42.319Z,16.29
2022-10-17T06:24:20.273Z,17.03
2022-10-17T06:38:42.633Z,17.23
2022-10-17T06:41:21.764Z,17.74
2022-10-17T06:43:56.076Z,17.98
2022-10-17T06:46:45.222Z,18.29
2022-10-17T06:49:19.596Z,18.28
2022-10-17T06:52:03.118Z,17.24
2022-10-17T06:54:57.006Z,16.21
2022-10-17T06:57:39.931Z,15.94
2022-10-17T07:00:33.995Z,17.21
2022-10-17T07:03:06.132Z,17.96
2022-10-17T07:05:37.887Z,18.47
2022-10-17T07:08:08.841Z,18.80
2022-10-17T07:10:42.962Z,18.82
2022-10-17T07:13:13.379Z,17.86
2022-10-17T07:15:48.617Z,17.03
2022-10-17T07:18:21.752Z,17.19
2022-10-17T07:20:56.114Z,18.17
2022-10-17T07:23:26.639Z,18.97
2022-10-17T07:26:03.037Z,19.33
2022-10-17T07:28:34.215Z,18.62
2022-10-17T07:31:15.659Z,17.71
2022-10-17T07:37:33.609Z,18.92
2022-10-17T07:40:05.070Z,19.44
2022-10-17T07:42:35.767Z,18.72
2022-10-17T07:45:07.735Z,17.96
2022-10-17T07:47:38.884Z,17.99
2022-10-17T07:50:10.189Z,19.15
2022-10-17T07:52:43.519Z,19.84
2022-10-17T07:55:14.052Z,19.51
2022-10-17T07:57:44.795Z,18.69
2022-10-17T08:00:15.887Z,18.04
2022-10-17T08:02:46.766Z,17.86
2022-10-17T08:05:17.657Z,18.93
2022-10-17T08:07:48.256Z,19.90
2022-10-17T08:10:18.897Z,20.30
2022-10-17T08:12:49.618Z,19.65
2022-10-17T08:15:20.246Z,19.00
2022-10-17T08:17:51.397Z,18.83
2022-10-17T08:20:22.490Z,19.96
2022-10-17T08:22:56.351Z,20.46
2022-10-17T08:25:26.946Z,19.81
2022-10-17T08:27:57.999Z,19.25
2022-10-17T08:30:30.886Z,18.92
2022-10-17T08:33:01.941Z,18.99
2022-10-17T08:35:32.555Z,20.18
2022-10-17T08:38:03.360Z,20.91
2022-10-17T08:40:35.655Z,20.37
2022-10-17T08:43:14.176Z,19.82
2022-10-17T08:45:47.341Z,19.48
2022-10-17T08:48:19.889Z,19.29
2022-10-17T08:50:52.296Z,19.15
2022-10-17T08:53:26.057Z,19.05
2022-10-17T08:55:56.670Z,18.96
2022-10-17T08:58:30.350Z,19.55
2022-10-17T09:01:10.373Z,20.87
2022-10-17T09:03:54.357Z,21.46
2022-10-17T09:06:30.211Z,20.96
2022-10-17T09:09:07.256Z,20.50
2022-10-17T09:11:44.527Z,20.20
2022-10-17T09:14:22.067Z,20.02
2022-10-17T09:16:59.114Z,19.87
2022-10-17T09:19:31.778Z,19.77
2022-10-17T09:22:04.750Z,19.72
2022-10-17T09:24:39.998Z,19.69
2022-10-17T09:27:16.685Z,19.71
2022-10-17T09:29:47.820Z,19.72
2022-10-17T09:32:19.801Z,19.76
2022-10-17T09:34:50.882Z,19.82
2022-10-17T09:37:24.129Z,19.89
2022-10-17T09:39:54.970Z,19.95
2022-10-17T09:42:27.919Z,20.02
2022-10-17T09:44:57.283Z,20.06
2022-10-17T09:47:31.167Z,20.12
2022-10-17T09:50:05.127Z,20.19
2022-10-17T09:52:37.873Z,20.28
2022-10-17T09:55:16.976Z,20.37
2022-10-17T09:57:54.558Z,20.47
2022-10-17T10:00:26.605Z,20.57
2022-10-17T10:03:10.693Z,20.66
2022-10-17T10:05:41.743Z,20.75
2022-10-17T10:08:16.579Z,20.85
2022-10-17T10:10:47.471Z,20.94
2022-10-17T10:13:20.577Z,21.02
2022-10-17T10:15:49.290Z,21.10
2022-10-17T10:21:13.876Z,21.24
2022-10-17T10:23:45.070Z,21.35
2022-10-17T10:26:24.082Z,21.40
2022-10-17T10:28:56.121Z,21.46
2022-10-17T10:31:39.125Z,21.53
2022-10-17T10:34:10.061Z,21.65
2022-10-17T10:36:47.929Z,21.76
2022-10-17T10:39:32.072Z,21.81
2022-10-17T10:42:03.550Z,21.89
2022-10-17T10:44:35.124Z,21.98
2022-10-17T10:47:09.997Z,22.09
2022-10-17T10:49:40.672Z,22.20
2022-10-17T10:52:15.307Z,22.30
2022-10-17T10:54:49.054Z,22.39
2022-10-17T10:57:22.632Z,22.46
2022-10-17T10:59:58.483Z,22.57
2022-10-17T11:02:31.996Z,22.66
2022-10-17T11:05:05.610Z,22.73
2022-10-17T11:07:37.834Z,22.82
2022-10-17T11:10:15.664Z,22.92
2022-10-17T11:12:48.006Z,22.99
2022-10-17T11:15:23.132Z,23.06
2022-10-17T11:17:58.077Z,23.14
2022-10-17T11:20:34.764Z,23.23
2022-10-17T11:23:11.923Z,23.30
2022-10-17T11:25:42.892Z,23.36
2022-10-17T11:28:15.579Z,23.43
2022-10-17T11:30:49.478Z,23.51
2022-10-17T11:33:23.347Z,23.57
2022-10-17T11:35:58.853Z,23.65
2022-10-17T11:38:34.846Z,23.71
2022-10-17T11:41:06.738Z,23.77
2022-10-17T11:43:39.928Z,23.83
2022-10-17T11:46:15.432Z,23.91
2022-10-17T11:48:49.990Z,23.99
2022-10-17T11:54:13.287Z,24.09
2022-10-17T11:56:48.793Z,24.14
2022-10-17T11:59:41.662Z,24.18
2022-10-17T12:02:10.937Z,24.20
2022-10-17T12:04:49.868Z,24.20
2022-10-17T12:07:23.842Z,24.20
2022-10-17T12:09:56.050Z,24.23
2022-10-17T12:12:28.515Z,24.26
2022-10-17T12:14:57.742Z,24.29
2022-10-17T12:17:33.020Z,24.34
2022-10-17T12:20:21.688Z,24.38
2022-10-17T12:22:53.200Z,24.38
2022-10-17T12:25:26.453Z,24.39
2022-10-17T12:28:09.784Z,24.38
2022-10-17T12:30:38.468Z,24.42
2022-10-17T12:33:22.499Z,24.46
2022-10-17T12:35:53.352Z,24.49
2022-10-17T12:38:30.421Z,24.53
2022-10-17T12:41:05.100Z,24.51
2022-10-17T12:43:52.402Z,24.43
2022-10-17T12:46:42.462Z,24.42
2022-10-17T12:49:37.707Z,24.46
2022-10-17T12:52:17.103Z,24.51
2022-10-17T12:55:00.117Z,24.59
2022-10-17T12:57:42.666Z,24.67
2022-10-17T13:00:18.391Z,24.69
2022-10-17T13:02:49.630Z,24.72
2022-10-17T13:05:24.372Z,24.82
2022-10-17T13:07:55.821Z,25.43
2022-10-17T13:10:28.017Z,26.53
2022-10-17T13:13:03.069Z,27.58
2022-10-17T13:15:35.064Z,28.45
2022-10-17T13:18:06.123Z,28.92
2022-10-17T13:20:36.688Z,29.20
2022-10-17T13:23:06.977Z,29.53
2022-10-17T13:25:39.603Z,29.89
2022-10-17T13:28:14.501Z,30.01
2022-10-17T13:30:49.737Z,30.27
2022-10-17T13:33:35.380Z,30.58
2022-10-17T13:36:08.787Z,31.06
2022-10-17T13:38:41.800Z,31.57
2022-10-17T13:41:35.887Z,32.18
2022-10-17T13:44:11.092Z,32.68
2022-10-17T13:46:42.578Z,33.08
2022-10-17T13:49:16.555Z,33.48
2022-10-17T13:51:49.170Z,33.84
2022-10-17T13:54:20.592Z,34.17
2022-10-17T13:56:56.685Z,34.49
2022-10-17T13:59:29.933Z,34.77
2022-10-17T14:02:01.983Z,34.97
2022-10-17T14:04:44.781Z,35.09
2022-10-17T14:07:26.253Z,35.11
2022-10-17T14:09:56.827Z,35.19
2022-10-17T14:12:28.281Z,35.35
2022-10-17T14:15:10.217Z,35.54
2022-10-17T14:17:42.460Z,35.66
2022-10-17T14:20:57.448Z,35.65
2022-10-17T14:23:24.093Z,35.65
2022-10-17T14:26:05.598Z,35.74
2022-10-17T14:28:36.681Z,35.81
2022-10-17T14:31:26.612Z,35.81
2022-10-17T14:33:57.565Z,35.85
2022-10-17T14:36:35.243Z,35.80
2022-10-17T14:39:10.574Z,35.50
2022-10-17T14:41:45.020Z,35.14
2022-10-17T14:44:22.136Z,34.98
2022-10-17T14:46:54.723Z,34.88
2022-10-17T14:49:28.723Z,34.86
2022-10-17T14:52:27.728Z,34.86
2022-10-17T14:54:59.184Z,34.73
2022-10-17T14:57:36.180Z,34.56
2022-10-17T15:00:08.087Z,34.47
2022-10-17T15:02:36.896Z,34.46
2022-10-17T15:05:12.821Z,34.46
2022-10-17T15:07:44.434Z,34.33
2022-10-17T15:10:24.491Z,33.93
2022-10-17T15:12:58.809Z,33.14
2022-10-17T15:15:35.352Z,32.28
2022-10-17T15:18:06.184Z,31.53
2022-10-17T15:20:36.918Z,30.87
2022-10-17T15:23:07.857Z,30.38
2022-10-17T15:25:39.019Z,30.03
2022-10-17T15:28:11.318Z,29.68
2022-10-17T15:30:42.123Z,29.28
2022-10-17T15:33:12.826Z,28.85
2022-10-17T15:35:43.945Z,28.37
2022-10-17T15:38:18.356Z,27.91
2022-10-17T15:40:51.463Z,27.43
2022-10-17T15:43:22.244Z,26.97
2022-10-17T15:45:52.750Z,26.52
2022-10-17T15:48:25.869Z,26.12
2022-10-17T15:50:56.362Z,25.67
2022-10-17T15:53:27.028Z,25.25
2022-10-17T15:55:57.624Z,24.85
2022-10-17T15:58:30.646Z,24.45
2022-10-17T16:01:01.041Z,24.03
2022-10-17T16:03:31.975Z,23.63
2022-10-17T16:06:02.906Z,23.32
2022-10-17T16:08:33.532Z,23.06
2022-10-17T16:11:04.280Z,22.78
2022-10-17T16:13:34.807Z,22.49
2022-10-17T16:16:05.946Z,22.20
2022-10-17T16:18:36.711Z,21.94
2022-10-17T16:21:07.313Z,21.72
2022-10-17T16:23:37.794Z,21.53
2022-10-17T16:26:08.898Z,21.28
2022-10-17T16:28:42.418Z,21.03
2022-10-17T16:31:21.867Z,20.84
2022-10-17T16:33:53.617Z,20.70
2022-10-17T16:36:24.825Z,20.57
2022-10-17T16:38:55.678Z,20.43
2022-10-17T16:41:27.636Z,20.27
2022-10-17T16:43:59.078Z,20.13
2022-10-17T16:46:30.233Z,20.36
2022-10-17T16:49:01.194Z,21.52
2022-10-17T16:51:33.818Z,22.21
2022-10-17T16:54:05.042Z,21.73
2022-10-17T16:56:35.903Z,21.05
2022-10-17T16:59:07.300Z,20.52
2022-10-17T17:01:38.838Z,20.10
2022-10-17T17:04:10.335Z,19.76
2022-10-17T17:06:41.050Z,19.85
2022-10-17T17:09:12.245Z,21.00
2022-10-17T17:11:42.689Z,21.72
2022-10-17T17:14:13.397Z,21.20
2022-10-17T17:16:44.431Z,20.47
2022-10-17T17:19:17.169Z,19.95
2022-10-17T17:21:50.962Z,19.57
2022-10-17T17:24:22.369Z,19.57
2022-10-17T17:26:54.037Z,20.71
2022-10-17T17:29:25.926Z,21.73
2022-10-17T17:31:56.638Z,22.11
2022-10-17T17:34:27.896Z,21.39
2022-10-17T17:36:58.892Z,20.62
2022-10-17T17:39:29.939Z,20.04
2022-10-17T17:42:00.471Z,19.97
2022-10-17T17:44:32.329Z,20.97
2022-10-17T17:47:03.156Z,21.53
2022-10-17T17:49:33.920Z,20.95
2022-10-17T17:52:04.592Z,20.16
2022-10-17T17:54:38.547Z,19.54
2022-10-17T17:57:12.589Z,19.09
2022-10-17T17:59:43.710Z,19.44
2022-10-17T18:02:14.637Z,20.55
2022-10-17T18:04:45.510Z,21.36
2022-10-17T18:07:16.196Z,21.63
2022-10-17T18:09:47.166Z,20.88
2022-10-17T18:12:18.181Z,20.09
2022-10-17T18:14:48.763Z,19.49
2022-10-17T18:17:19.738Z,19.02
2022-10-17T18:19:50.677Z,18.95
2022-10-17T18:22:23.016Z,19.93
2022-10-17T18:24:53.410Z,20.73
2022-10-17T18:27:24.009Z,20.96
2022-10-17T18:29:54.465Z,20.27
2022-10-17T18:32:24.962Z,19.50
2022-10-17T18:34:56.509Z,18.91
2022-10-17T18:37:27.141Z,18.77
2022-10-17T18:39:57.768Z,19.78
2022-10-17T18:42:28.857Z,20.68
2022-10-17T18:45:00.196Z,21.02
2022-10-17T18:47:31.178Z,20.29
2022-10-17T18:50:02.141Z,19.45
2022-10-17T18:52:32.771Z,18.79
2022-10-17T18:55:03.451Z,18.60
2022-10-17T18:57:34.283Z,19.56
2022-10-17T19:00:06.325Z,20.41
2022-10-17T19:02:38.051Z,20.76
2022-10-17T19:05:09.691Z,20.00
2022-10-17T19:07:40.216Z,19.14
2022-10-17T19:10:11.291Z,18.96
2022-10-17T19:12:41.790Z,19.81
2022-10-17T19:15:12.961Z,20.38
2022-10-17T19:17:44.048Z,20.72
2022-10-17T19:20:14.669Z,20.68
2022-10-17T19:22:45.338Z,19.73
2022-10-17T19:25:16.101Z,18.85
2022-10-17T19:27:47.041Z,18.51
2022-10-17T19:30:18.379Z,19.36
2022-10-17T19:32:49.000Z,20.14
2022-10-17T19:35:19.730Z,20.63
2022-10-17T19:37:50.439Z,20.73
2022-10-17T19:40:21.406Z,19.86
2022-10-17T19:42:52.262Z,18.96
2022-10-17T19:45:22.977Z,18.52
2022-10-17T19:47:53.708Z,19.30
2022-10-17T19:50:24.667Z,20.02
2022-10-17T19:52:55.241Z,20.36
2022-10-17T19:55:26.049Z,20.32
2022-10-17T19:57:56.764Z,19.39
2022-10-17T20:00:28.563Z,18.44
2022-10-17T20:02:59.069Z,18.06
2022-10-17T20:05:30.079Z,18.97
2022-10-17T20:08:00.534Z,19.75
2022-10-17T20:10:31.502Z,20.17
2022-10-17T20:13:02.174Z,20.15
2022-10-17T20:15:32.952Z,19.13
2022-10-17T20:18:03.822Z,18.29
2022-10-17T20:20:35.223Z,18.85
2022-10-17T20:23:06.206Z,19.44
2022-10-17T20:25:38.598Z,19.72
2022-10-17T20:28:09.193Z,19.94
2022-10-17T20:30:44.237Z,20.00
2022-10-17T20:33:15.874Z,20.15
2022-10-17T20:35:47.003Z,20.02
2022-10-17T20:38:17.694Z,18.96
2022-10-17T20:40:48.398Z,17.87
2022-10-17T20:43:19.145Z,17.37
2022-10-17T20:45:51.600Z,18.10
2022-10-17T20:48:23.310Z,18.85
2022-10-17T20:50:54.920Z,19.21
2022-10-17T20:53:36.481Z,19.34
2022-10-17T20:56:09.448Z,19.50
2022-10-17T20:58:40.160Z,19.62
2022-10-17T21:01:11.424Z,19.75
2022-10-17T21:03:45.645Z,19.98
2022-10-17T21:06:17.577Z,20.11
2022-10-17T21:08:48.756Z,20.04
2022-10-17T21:11:20.704Z,19.09
2022-10-17T21:13:56.129Z,18.03
2022-10-17T21:16:27.375Z,17.55
2022-10-17T21:18:58.303Z,18.34
2022-10-17T21:21:29.980Z,18.95
2022-10-17T21:24:01.591Z,19.20
2022-10-17T21:26:35.237Z,19.33
2022-10-17T21:29:06.251Z,19.47
2022-10-17T21:31:37.534Z,19.25
2022-10-17T21:34:08.887Z,18.10
2022-10-17T21:36:39.912Z,17.40
2022-10-17T21:39:11.324Z,17.85
2022-10-17T21:41:42.517Z,18.25
2022-10-17T21:44:15.068Z,18.57
2022-10-17T21:46:45.787Z,18.75
2022-10-17T21:49:18.672Z,18.83
2022-10-17T21:51:50.334Z,18.79
2022-10-17T21:54:22.997Z,18.82
2022-10-17T21:56:54.087Z,18.94
2022-10-17T21:59:24.636Z,19.05
2022-10-17T22:01:55.293Z,19.17
2022-10-17T22:04:25.842Z,19.33
2022-10-17T22:06:57.234Z,19.47
2022-10-17T22:09:28.224Z,19.61
2022-10-17T22:11:58.681Z,19.48
2022-10-17T22:14:29.813Z,18.44
2022-10-17T22:17:01.750Z,17.39
2022-10-17T22:19:32.582Z,16.89
2022-10-17T22:22:03.224Z,17.65
2022-10-17T22:24:33.644Z,18.33
2022-10-17T22:27:04.284Z,18.69
2022-10-17T22:29:35.399Z,18.82
2022-10-17T22:32:06.286Z,18.92
2022-10-17T22:34:36.859Z,19.04
2022-10-17T22:37:07.516Z,19.15
2022-10-17T22:39:38.857Z,19.27
2022-10-17T22:42:09.599Z,19.06
2022-10-17T22:44:40.677Z,17.89
2022-10-17T22:47:11.570Z,16.80
2022-10-17T22:49:42.104Z,16.30
2022-10-17T22:52:12.745Z,16.92
2022-10-17T22:54:43.256Z,17.54
2022-10-17T22:57:14.029Z,17.89
2022-10-17T22:59:44.930Z,18.19
2022-10-17T23:02:15.665Z,18.48
2022-10-17T23:04:46.561Z,18.26
2022-10-17T23:07:17.337Z,18.04
2022-10-17T23:09:48.483Z,17.96
2022-10-17T23:12:19.417Z,18.15
2022-10-17T23:14:49.959Z,18.26
2022-10-17T23:17:21.141Z,18.44
2022-10-17T23:19:54.158Z,18.24
2022-10-17T23:22:27.678Z,18.12
2022-10-17T23:24:58.253Z,18.25
2022-10-17T23:27:32.892Z,18.10
2022-10-17T23:30:04.067Z,18.13
2022-10-17T23:32:34.531Z,18.09
2022-10-17T23:35:09.234Z,18.00
2022-10-17T23:37:40.161Z,18.14
2022-10-17T23:40:12.491Z,17.99
2022-10-17T23:42:43.526Z,17.86
2022-10-17T23:45:14.505Z,17.95
2022-10-17T23:47:46.132Z,18.07
2022-10-17T23:50:16.903Z,18.24
2022-10-17T23:52:47.730Z,17.82
2022-10-17T23:55:18.709Z,16.41
2022-10-17T23:57:50.065Z,15.90
